Time;durP1;ratioP1;P1;durP2;ratioP2;P2;SDS_P1;SDS_P2;PMS_P1;PMS_P2;Temp;Humidity;BMP_temperature;BMP_pressure;BME280_temperature;BME280_humidity;BME280_pressure;Samples;Min_cycle;Max_cycle;Signal;HPM_P1;HPM_P2
2024/01/05 00:05:51;;;;;;;5.47;4.07;;;;;;;21.37;55.10;99670.88;41364234;28;20046;-69
2024/01/05 00:25:51;;;;;;;4.43;3.53;;;;;;;21.33;55.06;99682.63;41362396;28;20086;-69
2024/01/05 00:45:53;;;;;;;3.60;2.70;;;;;;;21.26;55.32;99681.50;41363125;28;20040;-68
2024/01/05 01:05:54;;;;;;;2.63;2.30;;;;;;;21.21;55.58;99684.53;41357723;28;20046;-69
2024/01/05 01:25:54;;;;;;;4.07;2.42;;;;;;;21.17;55.14;99712.13;41351255;28;20117;-68
2024/01/05 01:45:57;;;;;;;2.35;2.13;;;;;;;21.15;55.30;99692.16;41366352;28;20034;-69
2024/01/05 02:05:59;;;;;;;2.10;1.80;;;;;;;21.12;55.58;99680.09;41378924;28;20111;-69
2024/01/05 02:26:03;;;;;;;2.75;1.75;;;;;;;21.11;55.67;99700.31;41370561;28;20087;-69
2024/01/05 02:46:03;;;;;;;2.08;1.80;;;;;;;21.05;55.45;99694.78;41379266;28;20051;-69
2024/01/05 03:06:04;;;;;;;1.50;1.40;;;;;;;21.02;55.34;99681.88;41374169;28;20047;-69
2024/01/05 03:26:08;;;;;;;1.42;1.27;;;;;;;21.00;55.40;99671.50;41368849;28;20045;-68
2024/01/05 03:46:12;;;;;;;1.90;1.40;;;;;;;20.98;55.65;99688.38;41366942;28;20041;-69
2024/01/05 04:06:19;;;;;;;1.25;1.15;;;;;;;20.93;55.62;99704.56;41361202;28;20477;-68
2024/01/05 04:26:20;;;;;;;1.10;1.00;;;;;;;20.91;55.71;99702.06;41356421;28;20042;-68
2024/01/05 04:46:20;;;;;;;2.60;1.00;;;;;;;20.88;54.71;99726.03;41344553;28;20054;-69
2024/01/05 05:06:21;;;;;;;7.10;1.10;;;;;;;21.09;55.03;99757.56;41332898;28;20046;-70
2024/01/05 05:26:21;;;;;;;7.15;1.35;;;;;;;21.27;47.71;99755.09;41327066;28;20111;-68
2024/01/05 05:46:21;;;;;;;3.03;1.40;;;;;;;21.45;50.75;99767.63;41338094;28;20143;-68
2024/01/05 06:06:23;;;;;;;4.63;1.20;;;;;;;21.55;51.12;99799.25;41345563;28;20517;-68
2024/01/05 06:26:24;;;;;;;3.67;1.13;;;;;;;21.59;51.35;99819.09;41342597;28;20551;-68
2024/01/05 06:46:24;;;;;;;3.25;1.00;;;;;;;21.61;51.00;99821.63;41368270;28;20050;-68
2024/01/05 07:06:25;;;;;;;1.40;0.80;;;;;;;21.65;50.63;99792.22;41363808;28;20118;-68
2024/01/05 07:26:25;;;;;;;3.40;0.90;;;;;;;21.67;50.68;99792.91;41362002;28;20054;-69
2024/01/05 07:46:27;;;;;;;2.30;1.05;;;;;;;21.71;50.40;99773.22;41357821;28;20042;-69
2024/01/05 08:06:27;;;;;;;2.15;1.30;;;;;;;21.71;50.10;99775.03;41359116;28;20460;-69
2024/01/05 08:26:28;;;;;;;3.25;1.60;;;;;;;21.68;49.82;99793.75;41365588;28;20046;-69
2024/01/05 08:46:28;;;;;;;2.33;1.60;;;;;;;21.72;49.62;99806.50;41361036;28;20043;-69
2024/01/05 09:06:31;;;;;;;1.50;1.40;;;;;;;21.72;49.36;99829.41;41353232;28;20061;-69
2024/01/05 09:26:33;;;;;;;2.08;1.85;;;;;;;21.77;49.05;99837.72;41351337;28;20065;-68
2024/01/05 09:46:35;;;;;;;1.88;1.50;;;;;;;21.89;48.65;99847.19;41353085;28;20118;-68
2024/01/05 10:06:36;;;;;;;1.80;1.63;;;;;;;22.01;47.94;99795.16;41365439;28;20046;-69
2024/01/05 10:26:36;;;;;;;2.60;1.73;;;;;;;22.13;48.03;99750.19;41377650;28;20037;-69
2024/01/05 10:46:39;;;;;;;1.92;1.40;;;;;;;22.28;47.87;99708.41;41388739;28;20046;-68
2024/01/05 11:06:39;;;;;;;2.17;1.70;;;;;;;22.46;47.72;99682.97;41373417;28;20042;-68
2024/01/05 11:26:42;;;;;;;4.05;1.50;;;;;;;22.32;47.76;99667.59;41370330;28;20497;-68
2024/01/05 11:46:52;;;;;;;1.40;1.30;;;;;;;22.27;47.65;99630.28;41372402;28;20045;-68
2024/01/05 12:06:54;;;;;;;1.55;1.17;;;;;;;22.04;47.16;99631.41;41368586;28;20626;-68
2024/01/05 12:26:55;;;;;;;1.13;1.02;;;;;;;21.93;47.31;99634.22;41372422;28;20046;-69
2024/01/05 12:46:56;;;;;;;1.50;1.20;;;;;;;21.85;47.13;99613.03;41233761;28;20501;-69
2024/01/05 13:06:56;;;;;;;1.65;1.20;;;;;;;21.79;47.52;99588.09;41229926;28;20134;-68
2024/01/05 13:26:58;;;;;;;1.60;1.40;;;;;;;21.74;47.77;99588.50;41314666;28;20588;-69
2024/01/05 13:46:58;;;;;;;2.25;1.67;;;;;;;21.72;47.50;99587.81;41358244;28;20166;-70
2024/01/05 14:06:58;;;;;;;1.63;1.50;;;;;;;21.69;47.63;99588.09;41381244;28;20157;-69
2024/01/05 14:27:00;;;;;;;1.92;1.73;;;;;;;21.69;47.77;99582.84;41386545;28;20053;-69
2024/01/05 14:47:01;;;;;;;2.72;1.88;;;;;;;21.67;47.49;99586.59;41367455;28;20077;-69
2024/01/05 15:07:02;;;;;;;2.42;1.75;;;;;;;21.63;47.62;99593.09;41372271;28;20080;-69
2024/01/05 15:27:02;;;;;;;2.20;1.90;;;;;;;21.54;47.41;99578.94;41371909;28;20041;-68
2024/01/05 15:47:03;;;;;;;2.42;1.90;;;;;;;21.47;47.96;99589.22;41371847;28;20092;-69
2024/01/05 16:07:03;;;;;;;2.20;2.00;;;;;;;21.42;47.54;99592.28;41374396;28;20489;-69
2024/01/05 16:27:04;;;;;;;2.90;2.20;;;;;;;21.35;47.75;99596.44;41357067;28;20066;-69
2024/01/05 16:47:05;;;;;;;2.78;2.22;;;;;;;21.31;47.84;99575.78;41357148;28;20042;-68
2024/01/05 17:07:06;;;;;;;3.20;2.28;;;;;;;21.24;47.89;99600.03;41352883;28;20042;-69
2024/01/05 17:27:06;;;;;;;3.30;2.60;;;;;;;21.25;47.69;99591.16;41353743;28;20176;-68
2024/01/05 17:47:06;;;;;;;3.13;2.50;;;;;;;21.19;47.52;99599.63;41354311;28;20050;-69
2024/01/05 18:07:07;;;;;;;3.67;2.72;;;;;;;21.14;47.81;99607.09;41348784;28;20488;-69
2024/01/05 18:27:08;;;;;;;4.05;2.85;;;;;;;21.14;47.61;99607.09;41364652;28;20046;-68
2024/01/05 18:47:08;;;;;;;3.30;2.80;;;;;;;21.13;47.60;99615.97;41377478;28;20489;-68
2024/01/05 19:07:08;;;;;;;15.27;4.22;;;;;;;21.41;47.25;99616.94;41363192;28;20136;-66
2024/01/05 19:27:09;;;;;;;18.95;4.45;;;;;;;21.30;48.64;99603.06;41359829;28;20042;-66
2024/01/05 19:47:10;;;;;;;16.70;5.53;;;;;;;21.28;50.29;99595.31;41349110;28;20046;-67
2024/01/05 20:07:11;;;;;;;15.38;5.57;;;;;;;21.27;50.57;99578.66;41373141;28;20045;-67
2024/01/05 20:27:11;;;;;;;12.25;5.60;;;;;;;21.35;49.94;99558.72;41363575;28;20053;-67
2024/01/05 20:47:12;;;;;;;13.10;6.30;;;;;;;21.40;50.46;99549.44;41358392;28;20581;-68
2024/01/05 21:07:14;;;;;;;16.90;6.85;;;;;;;21.34;50.31;99536.00;41329257;28;20045;-67
2024/01/05 21:27:14;;;;;;;11.35;6.70;;;;;;;21.24;49.97;99517.59;41347879;28;20049;-70
2024/01/05 21:47:14;;;;;;;14.27;6.70;;;;;;;21.15;50.33;99500.00;41363323;28;20421;-68
2024/01/05 22:07:15;;;;;;;16.35;7.50;;;;;;;21.13;50.24;99484.34;41368558;28;20117;-68
2024/01/05 22:27:16;;;;;;;11.63;6.90;;;;;;;21.08;50.62;99476.84;41380472;28;20034;-69
2024/01/05 22:47:17;;;;;;;10.82;6.63;;;;;;;21.05;50.90;99460.50;41367098;28;20050;-68
2024/01/05 23:07:17;;;;;;;9.23;6.80;;;;;;;20.99;51.80;99440.03;41355248;28;20042;-69
2024/01/05 23:27:18;;;;;;;10.85;6.63;;;;;;;20.95;51.66;99427.13;41266723;28;20046;-67
2024/01/05 23:47:18;;;;;;;9.38;6.88;;;;;;;20.91;52.24;99411.75;41207364;28;20046;-68
